Time;durP1;ratioP1;P1;durP2;ratioP2;P2;SDS_P1;SDS_P2;PMS_P1;PMS_P2;Temp;Humidity;BMP_temperature;BMP_pressure;BME280_temperature;BME280_humidity;BME280_pressure;Samples;Min_cycle;Max_cycle;Signal;HPM_P1;HPM_P2
2021/03/13 00:01:10;;;;;;;1.30;1.10;;;5.80;99.90;;;6.26;100.00;97149.75;5009141;28;20466;-78
2021/03/13 00:03:38;;;;;;;2.13;1.13;;;5.70;99.90;;;6.30;100.00;97153.59;5016158;28;20457;-78
2021/03/13 00:06:06;;;;;;;7.90;1.10;;;5.80;99.90;;;6.32;100.00;97146.41;5009189;28;20467;-78
2021/03/13 00:08:35;;;;;;;2.67;1.20;;;5.80;99.90;;;6.35;100.00;97150.47;5014599;28;20471;-78
2021/03/13 00:11:04;;;;;;;1.47;1.13;;;5.80;99.90;;;6.36;100.00;97150.28;5012590;28;20517;-78
2021/03/13 00:13:32;;;;;;;1.67;1.47;;;5.90;99.90;;;6.37;100.00;97154.47;5013539;28;20470;-78
2021/03/13 00:16:01;;;;;;;3.50;1.00;;;5.90;99.90;;;6.37;100.00;97146.69;5012599;28;20462;-78
2021/03/13 00:18:30;;;;;;;1.40;1.10;;;5.80;99.90;;;6.41;100.00;97155.72;5011679;28;20458;-78
2021/03/13 00:20:57;;;;;;;5.70;1.30;;;5.80;99.90;;;6.44;100.00;97141.56;5011998;28;20470;-78
2021/03/13 00:23:25;;;;;;;3.90;1.20;;;5.90;99.90;;;6.34;100.00;97141.88;5011851;28;20483;-78
2021/03/13 00:25:53;;;;;;;4.40;1.30;;;5.80;99.90;;;6.34;100.00;97135.88;5008118;28;20723;-78
2021/03/13 00:28:21;;;;;;;1.20;0.93;;;5.80;99.90;;;6.37;100.00;97136.31;5013241;28;20846;-78
2021/03/13 00:30:49;;;;;;;4.70;0.90;;;5.90;99.90;;;6.42;100.00;97133.16;5012274;28;20459;-79
2021/03/13 00:33:19;;;;;;;3.83;1.10;;;5.90;99.90;;;6.43;100.00;97127.78;5012161;28;20470;-78
2021/03/13 00:35:52;;;;;;;2.60;1.37;;;5.90;99.90;;;6.39;100.00;97129.13;5009458;28;20463;-78
2021/03/13 00:38:21;;;;;;;1.33;1.10;;;5.80;99.90;;;6.37;100.00;97136.31;5010424;28;20482;-78
2021/03/13 00:40:49;;;;;;;3.57;1.27;;;5.80;99.90;;;6.44;100.00;97142.38;5009835;28;20501;-79
2021/03/13 00:43:17;;;;;;;2.03;1.10;;;5.90;99.90;;;6.40;100.00;97138.53;5008156;28;20467;-78
2021/03/13 00:45:47;;;;;;;1.10;1.00;;;5.80;99.90;;;6.47;100.00;97133.41;5009158;28;20478;-78
2021/03/13 00:48:15;;;;;;;3.90;1.20;;;5.90;99.90;;;6.49;100.00;97134.81;5008374;28;20474;-78
2021/03/13 00:50:45;;;;;;;2.00;1.43;;;6.00;99.90;;;6.48;100.00;97135.84;5006587;28;20463;-78
2021/03/13 00:53:14;;;;;;;2.40;1.37;;;6.00;99.90;;;6.53;100.00;97125.69;5004390;28;20475;-78
2021/03/13 00:55:42;;;;;;;4.30;1.33;;;6.00;99.90;;;6.56;100.00;97134.88;5007784;28;20488;-78
2021/03/13 00:58:10;;;;;;;1.30;1.10;;;6.00;99.90;;;6.55;100.00;97136.72;5007422;28;20505;-78
2021/03/13 01:00:39;;;;;;;2.20;1.17;;;6.00;99.90;;;6.55;100.00;97134.13;5008277;28;20500;-78
2021/03/13 01:03:07;;;;;;;2.20;1.30;;;6.00;99.90;;;6.58;100.00;97120.75;5008643;28;20463;-78
2021/03/13 01:05:36;;;;;;;2.03;1.10;;;6.10;99.90;;;6.58;100.00;97123.34;5008354;28;20850;-78
2021/03/13 01:08:07;;;;;;;1.27;1.10;;;6.10;99.90;;;6.57;100.00;97126.94;5009296;28;20451;-78
2021/03/13 01:10:52;;;;;;;4.93;1.20;;;6.10;99.90;;;6.57;100.00;97113.94;5004017;28;21026;-78
2021/03/13 01:13:23;;;;;;;2.53;1.33;;;6.00;99.90;;;6.61;100.00;97116.16;5007735;28;20964;-78
2021/03/13 01:15:50;;;;;;;1.30;1.10;;;6.10;99.90;;;6.54;100.00;97111.72;5007179;28;20975;-78
2021/03/13 01:18:19;;;;;;;3.00;1.10;;;6.00;99.90;;;6.57;100.00;97113.94;5008068;28;20498;-78
2021/03/13 01:20:49;;;;;;;1.60;0.97;;;6.00;99.90;;;6.57;100.00;97098.34;5003793;28;20463;-78
2021/03/13 01:23:16;;;;;;;3.43;1.10;;;6.00;99.90;;;6.59;100.00;97098.97;5007456;28;21052;-78
2021/03/13 01:25:44;;;;;;;2.70;1.17;;;6.00;99.90;;;6.62;100.00;97092.63;5007111;28;20467;-78
2021/03/13 01:28:13;;;;;;;2.20;1.10;;;6.10;99.90;;;6.62;100.00;97084.03;5008068;28;20475;-78
2021/03/13 01:30:57;;;;;;;2.50;1.30;;;6.00;99.90;;;6.60;100.00;97073.81;5007370;28;21019;-78
2021/03/13 01:33:25;;;;;;;2.30;1.10;;;6.00;99.90;;;6.62;100.00;97068.44;5008500;28;20481;-78
2021/03/13 01:35:53;;;;;;;2.17;1.00;;;6.10;99.90;;;6.64;100.00;97069.03;5007916;28;20482;-78
2021/03/13 01:38:20;;;;;;;1.57;1.00;;;6.10;99.90;;;6.59;100.00;97065.19;5006955;28;20501;-78
2021/03/13 01:40:48;;;;;;;2.20;0.97;;;6.10;99.90;;;6.62;100.00;97066.66;5007528;28;20483;-78
2021/03/13 01:43:16;;;;;;;3.77;1.00;;;6.10;99.90;;;6.50;100.00;97053.34;5007642;28;20463;-78
2021/03/13 01:45:44;;;;;;;2.30;1.00;;;5.90;99.90;;;6.48;100.00;97057.94;5005410;28;20558;-78
2021/03/13 01:48:14;;;;;;;1.20;0.90;;;5.90;99.90;;;6.49;100.00;97064.72;5006641;28;20481;-78
2021/03/13 01:50:42;;;;;;;2.17;1.47;;;5.80;99.90;;;6.53;100.00;97052.97;5004343;28;20959;-78
2021/03/13 01:53:10;;;;;;;1.80;0.90;;;6.00;99.90;;;6.52;100.00;97053.19;5003986;28;20458;-78
2021/03/13 01:55:38;;;;;;;5.67;1.10;;;6.00;99.90;;;6.51;100.00;97038.56;5004539;28;20550;-78
2021/03/13 01:58:05;;;;;;;1.07;0.90;;;6.00;99.90;;;6.49;100.00;97030.97;5006012;28;20564;-78
2021/03/13 02:00:34;;;;;;;1.37;1.13;;;6.00;99.90;;;6.52;100.00;97030.59;5006581;28;20467;-78
2021/03/13 02:03:01;;;;;;;1.73;1.10;;;6.00;99.90;;;6.51;100.00;97023.81;5002624;28;20566;-78
2021/03/13 02:05:37;;;;;;;3.10;1.10;;;6.00;99.90;;;6.50;100.00;97005.78;5007411;28;20462;-78
2021/03/13 02:08:15;;;;;;;0.83;0.70;;;5.90;99.90;;;6.40;100.00;96998.34;5008664;28;20466;-78
2021/03/13 02:10:58;;;;;;;0.93;0.80;;;5.90;99.90;;;6.41;100.00;97001.72;5007528;28;20554;-78
2021/03/13 02:13:31;;;;;;;3.67;0.90;;;5.90;99.90;;;6.39;100.00;96988.94;5007473;28;20544;-78
2021/03/13 02:16:23;;;;;;;3.33;0.90;;;5.90;99.90;;;6.42;100.00;96977.38;5007281;28;20470;-78
2021/03/13 02:19:20;;;;;;;1.90;0.93;;;5.90;99.90;;;6.38;100.00;96979.56;5005794;28;20481;-78
2021/03/13 02:21:55;;;;;;;0.80;0.80;;;5.80;99.90;;;6.37;100.00;96980.53;5005132;28;20537;-77
2021/03/13 02:24:58;;;;;;;0.80;0.70;;;5.80;99.90;;;6.34;100.00;96967.94;5006549;28;20478;-78
2021/03/13 02:27:30;;;;;;;0.90;0.80;;;5.90;99.90;;;6.35;100.00;96961.72;5007139;28;21371;-78
2021/03/13 02:30:02;;;;;;;0.87;0.77;;;5.80;99.90;;;6.35;100.00;96953.94;5004719;28;20494;-78
2021/03/13 02:32:42;;;;;;;0.83;0.80;;;5.80;99.90;;;6.32;100.00;96951.72;5007304;28;20845;-78
2021/03/13 02:35:18;;;;;;;0.90;0.80;;;5.70;99.90;;;6.35;100.00;96946.16;5007137;28;20487;-78
2021/03/13 02:37:50;;;;;;;1.00;0.80;;;5.80;99.90;;;6.36;100.00;96942.56;5007476;28;20844;-78
2021/03/13 02:40:24;;;;;;;2.30;1.03;;;5.80;99.90;;;6.35;100.00;96935.78;5007163;28;20466;-78
2021/03/13 02:42:56;;;;;;;1.10;0.77;;;5.80;99.90;;;6.37;100.00;96927.81;5004669;28;20838;-78
2021/03/13 02:45:27;;;;;;;1.53;0.87;;;5.80;99.90;;;6.38;100.00;96932.81;5004708;28;20554;-78
2021/03/13 02:47:57;;;;;;;1.33;0.80;;;5.80;99.90;;;6.35;100.00;96925.38;5006030;28;20467;-78
2021/03/13 02:50:27;;;;;;;1.10;0.90;;;5.80;99.90;;;6.40;100.00;96925.63;5006457;28;20874;-78
2021/03/13 02:52:57;;;;;;;1.20;1.07;;;5.80;99.90;;;6.41;100.00;96909.06;5000871;28;20900;-78
2021/03/13 02:55:26;;;;;;;2.77;1.27;;;5.80;99.90;;;6.43;100.00;96904.47;5005852;28;20463;-78
2021/03/13 02:57:59;;;;;;;3.57;1.10;;;5.80;99.90;;;6.41;100.00;96893.50;5005630;28;20857;-78
2021/03/13 03:00:33;;;;;;;2.40;1.00;;;5.80;99.90;;;6.45;100.00;96889.53;5007156;28;20459;-78
2021/03/13 03:03:03;;;;;;;1.57;1.13;;;5.90;99.90;;;6.47;100.00;96887.53;5003085;28;20462;-78
2021/03/13 03:05:32;;;;;;;1.20;1.07;;;5.90;99.90;;;6.47;100.00;96886.72;5006142;28;20473;-78
2021/03/13 03:08:04;;;;;;;1.20;1.10;;;5.90;99.90;;;6.47;100.00;96874.56;5007330;28;20448;-78
2021/03/13 03:10:36;;;;;;;4.20;1.20;;;5.90;99.90;;;6.46;100.00;96866.94;5006302;28;20474;-78
2021/03/13 03:13:07;;;;;;;4.93;1.20;;;5.90;99.90;;;6.51;100.00;96868.00;5006249;28;20470;-78
2021/03/13 03:15:36;;;;;;;5.53;1.50;;;5.90;99.90;;;6.51;100.00;96868.00;5006062;28;20463;-77
2021/03/13 03:18:13;;;;;;;3.43;1.30;;;6.00;99.90;;;6.51;100.00;96862.00;5006494;28;21011;-78
2021/03/13 03:20:50;;;;;;;2.70;1.20;;;6.00;99.90;;;6.54;100.00;96875.41;5005064;28;20463;-78
2021/03/13 03:23:20;;;;;;;5.37;1.07;;;6.10;99.90;;;6.54;100.00;96867.63;5005192;28;20874;-78
2021/03/13 03:25:51;;;;;;;2.40;1.00;;;6.00;99.90;;;6.59;100.00;96864.44;5005778;28;20545;-78
2021/03/13 03:28:20;;;;;;;5.87;1.30;;;6.10;99.90;;;6.58;100.00;96857.66;5005945;28;20471;-78
2021/03/13 03:30:50;;;;;;;1.97;1.00;;;6.10;99.90;;;6.62;100.00;96852.88;5006809;28;20851;-78
2021/03/13 03:33:18;;;;;;;1.63;1.00;;;6.10;99.90;;;6.63;100.00;96849.28;5005681;28;20469;-78
2021/03/13 03:35:46;;;;;;;1.63;1.00;;;6.10;99.90;;;6.63;100.00;96849.28;5005548;28;20497;-78
2021/03/13 03:38:15;;;;;;;1.83;1.10;;;6.10;99.90;;;6.66;100.00;96844.50;4996387;28;20510;-78
2021/03/13 03:40:45;;;;;;;1.23;1.03;;;6.10;99.90;;;6.71;100.00;96846.50;5007123;28;20467;-78
2021/03/13 03:43:22;;;;;;;3.13;1.00;;;6.20;99.90;;;6.71;100.00;96836.13;5002857;28;20459;-78
2021/03/13 03:45:56;;;;;;;2.50;1.47;;;6.20;99.90;;;6.70;100.00;96844.94;5006754;28;20827;-78
2021/03/13 03:48:25;;;;;;;2.97;1.37;;;6.10;99.90;;;6.72;100.00;96833.34;5007771;28;20466;-78
2021/03/13 03:50:53;;;;;;;1.50;1.00;;;6.20;99.90;;;6.73;100.00;96834.97;5002936;28;20467;-78
2021/03/13 03:53:25;;;;;;;3.13;1.20;;;6.20;99.90;;;6.75;100.00;96826.97;5005084;28;20502;-78
2021/03/13 03:55:58;;;;;;;3.30;1.03;;;6.30;99.90;;;6.77;100.00;96825.00;5005363;28;20459;-78
2021/03/13 03:58:33;;;;;;;5.40;1.07;;;6.30;99.90;;;6.78;100.00;96829.16;5002384;28;20510;-78
2021/03/13 04:01:03;;;;;;;5.97;1.10;;;6.30;99.90;;;6.78;100.00;96816.97;5005672;28;20490;-78
2021/03/13 04:03:32;;;;;;;0.83;0.83;;;6.30;99.90;;;6.82;100.00;96822.59;5006337;28;20463;-78
2021/03/13 04:06:02;;;;;;;10.93;1.30;;;6.30;99.90;;;6.81;100.00;96810.59;5006025;28;20820;-78
2021/03/13 04:08:32;;;;;;;5.10;1.70;;;6.30;99.90;;;6.82;100.00;96817.41;5004978;28;20499;-78
2021/03/13 04:11:01;;;;;;;3.70;1.10;;;6.30;99.90;;;6.81;100.00;96816.59;5005839;28;20466;-78
2021/03/13 04:13:31;;;;;;;5.07;1.30;;;6.30;99.90;;;6.84;100.00;96807.59;5006140;28;20463;-78
2021/03/13 04:15:59;;;;;;;3.37;1.43;;;6.30;99.90;;;6.82;100.00;96812.19;5009534;28;20834;-77
2021/03/13 04:18:27;;;;;;;2.60;1.47;;;6.30;99.90;;;6.88;100.00;96780.25;5010101;28;20494;-78
2021/03/13 04:20:56;;;;;;;4.10;1.70;;;6.40;99.90;;;6.87;100.00;96799.44;5008305;28;20490;-78
2021/03/13 04:23:24;;;;;;;6.10;1.50;;;6.30;99.90;;;6.91;100.00;96803.22;5007815;28;20462;-78
2021/03/13 04:25:56;;;;;;;1.70;1.40;;;6.40;99.90;;;6.91;100.00;96785.84;5006037;28;20517;-78
2021/03/13 04:28:24;;;;;;;5.00;1.83;;;6.40;99.90;;;6.94;100.00;96780.25;5009216;28;20466;-78
2021/03/13 04:30:52;;;;;;;5.80;2.00;;;6.50;99.90;;;6.95;100.00;96773.28;5009322;28;20872;-78
2021/03/13 04:33:22;;;;;;;4.10;2.13;;;6.40;99.90;;;6.97;100.00;96764.31;5010082;28;20450;-78
2021/03/13 04:35:53;;;;;;;15.83;3.40;;;6.40;99.90;;;6.96;100.00;96754.91;5009489;28;20465;-77
2021/03/13 04:38:22;;;;;;;5.90;3.30;;;6.40;99.90;;;7.01;100.00;96734.31;5007206;28;20541;-78
2021/03/13 04:40:53;;;;;;;4.97;3.30;;;6.40;99.90;;;7.05;100.00;96734.72;5004822;28;20474;-78
2021/03/13 04:43:25;;;;;;;7.83;4.33;;;6.50;99.90;;;7.02;100.00;96748.09;5005213;28;20467;-78
2021/03/13 04:45:57;;;;;;;51.53;24.37;;;6.50;99.90;;;7.02;100.00;96740.31;4998867;28;20481;-81
2021/03/13 04:48:29;;;;;;;4.50;3.53;;;6.50;99.90;;;7.00;100.00;96737.91;5000141;28;20467;-78
2021/03/13 04:50:59;;;;;;;10.87;3.77;;;6.40;99.90;;;7.05;100.00;96724.31;5001582;28;20557;-78
2021/03/13 04:53:26;;;;;;;5.43;2.50;;;6.50;99.90;;;7.04;100.00;96730.53;5003985;28;20467;-78
2021/03/13 04:55:54;;;;;;;10.03;2.90;;;6.50;99.90;;;7.04;100.00;96710.53;5005083;28;20463;-77
2021/03/13 04:58:22;;;;;;;4.93;1.60;;;6.50;99.90;;;7.08;100.00;96716.94;5005684;28;20502;-78
2021/03/13 05:00:50;;;;;;;6.03;2.70;;;6.60;99.90;;;7.07;100.00;96727.53;5008557;28;20459;-77
2021/03/13 05:03:36;;;;;;;7.97;2.40;;;6.50;99.90;;;7.04;100.00;96722.72;5009296;28;20446;-78
2021/03/13 05:06:05;;;;;;;4.10;1.57;;;6.60;99.90;;;7.02;100.00;96729.91;5007753;28;20467;-78
2021/03/13 05:08:33;;;;;;;8.17;1.53;;;6.50;99.90;;;7.07;100.00;96723.16;5005344;28;21070;-78
2021/03/13 05:11:01;;;;;;;17.03;8.10;;;6.60;99.90;;;7.06;100.00;96720.72;5009579;28;20963;-82
2021/03/13 05:13:28;;;;;;;4.77;1.80;;;6.50;99.90;;;7.06;100.00;96710.34;5008476;28;20467;-77
2021/03/13 05:15:56;;;;;;;3.20;1.57;;;6.60;99.90;;;7.01;100.00;96702.34;5002970;28;20455;-79
2021/03/13 05:18:25;;;;;;;4.23;1.93;;;6.50;99.90;;;7.06;100.00;96708.53;5009139;28;20562;-79
2021/03/13 05:20:52;;;;;;;3.13;1.83;;;6.50;99.90;;;7.07;100.00;96699.75;5009092;28;20692;-79
2021/03/13 05:23:21;;;;;;;4.50;1.70;;;6.50;99.90;;;7.08;100.00;96698.72;5008937;28;20447;-79
2021/03/13 05:25:48;;;;;;;4.97;1.70;;;6.60;99.90;;;7.03;100.00;96684.75;5007778;28;20975;-79
2021/03/13 05:28:16;;;;;;;4.60;1.73;;;6.50;99.90;;;7.03;100.00;96677.75;5009014;28;20474;-79
2021/03/13 05:30:44;;;;;;;5.37;1.80;;;6.50;99.90;;;7.07;100.00;96665.16;5008781;28;20867;-79
2021/03/13 05:33:11;;;;;;;5.17;1.73;;;6.60;99.90;;;7.03;100.00;96666.56;5009019;28;20466;-79
2021/03/13 05:35:40;;;;;;;2.00;1.43;;;6.50;99.90;;;7.03;100.00;96661.34;5007331;28;20553;-79
2021/03/13 05:38:07;;;;;;;7.33;1.60;;;6.50;99.90;;;7.07;100.00;96659.97;5008524;28;20502;-79
2021/03/13 05:40:36;;;;;;;5.50;1.70;;;6.60;99.90;;;7.04;100.00;96644.78;5008863;28;20478;-78
2021/03/13 05:43:04;;;;;;;6.23;1.90;;;6.50;99.90;;;7.02;100.00;96637.16;5006456;28;20508;-78
2021/03/13 05:45:32;;;;;;;10.83;1.70;;;6.50;99.90;;;7.06;100.00;96637.56;5008655;28;20862;-79
2021/03/13 05:48:02;;;;;;;3.20;1.23;;;6.50;99.90;;;6.99;100.00;96634.16;5008766;28;20537;-78
2021/03/13 05:50:31;;;;;;;2.73;1.23;;;6.50;99.90;;;7.00;100.00;96617.59;5007218;28;20557;-79
2021/03/13 05:53:04;;;;;;;3.30;1.70;;;6.50;99.90;;;7.00;100.00;96607.19;5008571;28;20455;-79
2021/03/13 05:55:32;;;;;;;1.33;0.90;;;6.50;99.90;;;6.99;100.00;96608.97;5006940;28;20467;-78
2021/03/13 05:58:01;;;;;;;4.27;1.50;;;6.40;99.90;;;7.02;100.00;96579.19;5008447;28;20996;-79
2021/03/13 06:00:30;;;;;;;3.80;2.00;;;6.40;99.90;;;7.06;100.00;96585.59;5004329;28;20510;-79
2021/03/13 06:02:58;;;;;;;2.20;1.60;;;6.50;99.90;;;7.07;100.00;96571.59;5003779;28;20571;-79
2021/03/13 06:05:26;;;;;;;2.90;1.77;;;6.50;99.90;;;7.11;100.00;96585.81;5004936;28;20805;-78
2021/03/13 06:07:55;;;;;;;7.63;3.03;;;6.60;99.90;;;7.12;100.00;96576.97;5007288;28;20552;-78
2021/03/13 06:10:23;;;;;;;2.53;1.03;;;6.60;99.90;;;7.03;100.00;96576.41;5002562;28;20463;-78
2021/03/13 06:12:50;;;;;;;3.80;1.23;;;6.50;99.90;;;7.04;100.00;96559.00;5003088;28;21082;-78
2021/03/13 06:15:21;;;;;;;2.40;1.20;;;6.50;99.90;;;7.06;100.00;96570.00;5004404;28;20462;-78
2021/03/13 06:17:54;;;;;;;2.17;1.10;;;6.50;99.90;;;7.04;100.00;96546.81;5001985;28;20855;-79
2021/03/13 06:20:30;;;;;;;5.93;1.20;;;6.50;99.90;;;7.07;100.00;96535.22;5001684;28;20995;-78
2021/03/13 06:23:01;;;;;;;1.43;0.80;;;6.50;99.90;;;7.06;100.00;96539.63;5004085;28;20466;-78
2021/03/13 06:25:31;;;;;;;1.53;0.80;;;6.50;99.90;;;7.04;100.00;96517.44;5003401;28;20991;-79
2021/03/13 06:28:06;;;;;;;2.60;1.00;;;6.40;99.90;;;7.09;100.00;96548.78;5006625;28;20455;-77
2021/03/13 06:30:41;;;;;;;3.10;1.60;;;6.50;99.90;;;7.06;100.00;96538.81;5005723;28;20828;-79
2021/03/13 06:33:30;;;;;;;4.40;0.93;;;6.50;99.90;;;7.00;100.00;96524.03;5005441;28;20468;-79
2021/03/13 06:36:01;;;;;;;2.33;0.70;;;6.50;99.90;;;7.00;100.00;96519.63;5003653;28;21074;-78
2021/03/13 06:38:30;;;;;;;2.50;1.17;;;6.40;99.90;;;7.01;100.00;96510.03;5001747;28;20877;-79
2021/03/13 06:41:11;;;;;;;3.60;0.90;;;6.40;99.90;;;7.06;100.00;96524.03;5005246;28;20491;-78
2021/03/13 06:43:40;;;;;;;6.10;0.93;;;6.50;99.90;;;7.01;100.00;96523.03;5008718;28;20455;-77
2021/03/13 06:46:12;;;;;;;2.60;1.10;;;6.40;99.90;;;7.02;100.00;96520.22;5007429;28;20474;-78
2021/03/13 06:48:44;;;;;;;2.73;1.20;;;6.50;99.90;;;7.06;100.00;96520.63;5008412;28;20443;-77
2021/03/13 06:51:26;;;;;;;13.43;1.47;;;6.60;99.90;;;7.05;100.00;96517.22;5007159;28;20467;-77
2021/03/13 06:54:11;;;;;;;3.10;0.90;;;6.60;99.90;;;7.02;100.00;96503.81;5006848;28;20450;-77
2021/03/13 06:56:42;;;;;;;7.00;1.47;;;6.50;99.90;;;7.06;100.00;96505.03;5007410;28;20867;-78
2021/03/13 06:59:23;;;;;;;4.83;1.10;;;6.50;99.90;;;7.07;100.00;96510.03;5008849;28;20899;-78
2021/03/13 07:02:04;;;;;;;169.87;82.37;;;6.50;99.90;;;7.11;100.00;96500.03;5008233;28;20455;-81
2021/03/13 07:04:35;;;;;;;2.10;1.33;;;6.60;99.90;;;7.12;100.00;96491.22;5008846;28;20450;-77
2021/03/13 07:07:05;;;;;;;2.27;1.20;;;6.60;99.90;;;7.14;100.00;96496.22;5009526;28;20490;-78
2021/03/13 07:09:54;;;;;;;7.37;1.13;;;6.60;99.90;;;7.15;100.00;96488.19;5009218;28;20495;-78
2021/03/13 07:12:26;;;;;;;4.67;1.20;;;6.70;99.90;;;7.14;100.00;96478.81;5009077;28;20562;-77
2021/03/13 07:14:56;;;;;;;1.33;0.80;;;6.60;99.90;;;7.01;100.00;96478.88;5008244;28;20978;-77
2021/03/13 07:17:26;;;;;;;1.67;0.97;;;6.40;99.90;;;7.07;100.00;96478.84;5009124;28;20570;-78
2021/03/13 07:19:53;;;;;;;5.17;1.43;;;6.60;99.90;;;7.09;100.00;96491.63;5009616;28;20447;-77
2021/03/13 07:22:23;;;;;;;0.90;0.77;;;6.60;99.90;;;7.03;100.00;96488.03;5008965;28;20501;-78
2021/03/13 07:24:58;;;;;;;2.00;0.80;;;6.50;99.90;;;7.08;100.00;96490.81;5009218;28;20451;-78
2021/03/13 07:27:30;;;;;;;1.30;1.03;;;6.60;99.90;;;7.03;100.00;96488.03;5009595;28;20978;-78
2021/03/13 07:29:59;;;;;;;1.83;0.90;;;6.50;99.90;;;7.07;100.00;96493.63;5009256;28;20470;-77
2021/03/13 07:32:31;;;;;;;1.97;1.30;;;6.60;99.90;;;7.03;100.00;96492.44;5009353;28;21304;-78
2021/03/13 07:35:07;;;;;;;2.47;1.17;;;6.40;99.90;;;7.07;100.00;96483.25;5009272;28;20818;-77
2021/03/13 07:37:41;;;;;;;3.40;1.00;;;6.50;99.90;;;7.07;100.00;96483.25;5009418;28;20497;-78
2021/03/13 07:40:17;;;;;;;1.20;1.00;;;6.50;99.90;;;7.02;100.00;96472.66;5009308;28;20475;-78
2021/03/13 07:42:47;;;;;;;6.70;1.20;;;6.50;99.90;;;7.05;100.00;96478.22;5009545;28;20831;-78
2021/03/13 07:45:18;;;;;;;1.60;1.17;;;6.50;99.90;;;7.02;100.00;96477.84;5008951;28;20501;-78
2021/03/13 07:47:46;;;;;;;2.67;1.10;;;6.40;99.90;;;7.07;100.00;96485.84;5010833;28;20451;-77
2021/03/13 07:50:17;;;;;;;1.50;1.10;;;6.50;99.90;;;7.07;100.00;96489.25;5013180;28;20509;-78
2021/03/13 07:52:50;;;;;;;6.73;1.33;;;6.50;99.90;;;7.11;100.00;96473.25;5013618;28;20446;-77
2021/03/13 07:55:20;;;;;;;2.60;1.23;;;6.60;99.90;;;7.06;100.00;96479.03;5013400;28;20455;-77
2021/03/13 07:57:51;;;;;;;1.57;0.97;;;6.50;99.90;;;7.07;100.00;96471.06;5012268;28;20503;-77
2021/03/13 08:00:44;;;;;;;1.30;1.20;;;6.50;99.90;;;7.02;100.00;96451.84;5012808;28;20974;-77
2021/03/13 08:03:45;;;;;;;8.23;1.47;;;6.50;99.90;;;6.99;100.00;96465.25;5013308;28;20533;-77
2021/03/13 08:06:15;;;;;;;2.70;1.10;;;6.50;99.90;;;7.00;100.00;96474.66;5007524;28;20466;-78
2021/03/13 08:08:45;;;;;;;1.87;1.00;;;6.40;99.90;;;7.03;100.00;96466.44;5013552;28;20465;-77
2021/03/13 08:11:14;;;;;;;3.67;1.30;;;6.50;99.90;;;7.07;100.00;96468.44;5012810;28;20454;-78
2021/03/13 08:13:56;;;;;;;8.93;1.33;;;6.50;99.90;;;7.04;100.00;96457.66;5012133;28;20458;-77
2021/03/13 08:16:42;;;;;;;5.63;0.90;;;6.50;99.90;;;6.98;100.00;96468.84;5012617;28;20457;-78
2021/03/13 08:19:38;;;;;;;5.07;1.43;;;6.40;99.90;;;7.02;100.00;96447.47;5012319;28;20501;-77
2021/03/13 08:22:23;;;;;;;4.63;1.30;;;6.50;99.90;;;7.06;100.00;96461.66;5010700;28;20465;-77
2021/03/13 08:24:53;;;;;;;3.80;1.30;;;6.50;99.90;;;7.11;100.00;96463.66;5013042;28;20458;-77
2021/03/13 08:27:42;;;;;;;3.17;1.43;;;6.60;99.90;;;7.03;100.00;96446.47;5012156;28;20530;-77
2021/03/13 08:30:21;;;;;;;2.53;1.20;;;6.50;99.90;;;7.09;100.00;96444.84;5012123;28;20520;-77
2021/03/13 08:33:06;;;;;;;2.33;0.93;;;6.60;99.90;;;7.07;100.00;96433.88;5012113;28;20462;-77
2021/03/13 08:35:47;;;;;;;4.07;1.10;;;6.60;99.90;;;7.09;100.00;96429.25;5012338;28;20451;-77
2021/03/13 08:38:41;;;;;;;2.27;1.23;;;6.60;99.90;;;7.06;100.00;96443.47;5012088;28;20498;-77
2021/03/13 08:41:10;;;;;;;3.90;1.00;;;6.50;99.90;;;7.06;100.00;96440.06;5011963;28;20987;-77
2021/03/13 08:43:49;;;;;;;3.33;1.10;;;6.60;99.90;;;7.06;100.00;96435.66;5011950;28;20461;-77
2021/03/13 08:46:45;;;;;;;5.03;1.50;;;6.60;99.90;;;7.08;100.00;96436.25;5011820;28;20486;-78
2021/03/13 08:49:36;;;;;;;2.03;1.13;;;6.60;99.90;;;7.09;100.00;96435.25;5011769;28;20800;-77
2021/03/13 08:52:25;;;;;;;2.50;1.10;;;6.60;99.90;;;7.12;100.00;96434.03;5012389;28;20458;-77
2021/03/13 08:54:54;;;;;;;5.37;1.10;;;6.60;99.90;;;7.11;100.00;96440.25;5011888;28;20458;-77
2021/03/13 08:57:44;;;;;;;5.83;1.30;;;6.60;99.90;;;7.12;100.00;96417.63;5011655;28;20581;-78
2021/03/13 09:00:17;;;;;;;4.10;1.10;;;6.60;99.90;;;7.10;100.00;96410.06;5010284;28;20521;-77
2021/03/13 09:02:49;;;;;;;1.20;0.87;;;6.50;99.90;;;7.19;100.00;96410.63;5012183;28;20565;-77
2021/03/13 09:05:22;;;;;;;4.30;1.10;;;6.60;99.90;;;7.21;100.00;96396.44;5011578;28;20525;-77
2021/03/13 09:07:54;;;;;;;1.33;0.73;;;6.70;99.90;;;7.18;100.00;96412.44;5011775;28;20959;-77
2021/03/13 09:10:25;;;;;;;0.83;0.80;;;6.60;99.90;;;7.15;100.00;96392.03;5011728;28;20554;-77
2021/03/13 09:12:53;;;;;;;3.17;1.17;;;6.60;99.90;;;7.22;100.00;96398.00;5011718;28;20451;-77
2021/03/13 09:15:20;;;;;;;1.67;1.20;;;6.70;99.90;;;7.20;100.00;96388.81;5011102;28;20455;-77
2021/03/13 09:17:48;;;;;;;2.60;0.80;;;6.70;99.90;;;7.20;100.00;96379.22;5011621;28;20491;-77
2021/03/13 09:20:19;;;;;;;3.50;1.30;;;6.70;99.90;;;7.23;100.00;96363.22;5011309;28;20960;-78
2021/03/13 09:22:48;;;;;;;3.93;1.33;;;6.70;99.90;;;7.24;100.00;96354.41;5012058;28;20459;-77
2021/03/13 09:25:19;;;;;;;1.13;1.03;;;6.70;99.90;;;7.25;100.00;96365.63;5011380;28;20459;-77
2021/03/13 09:27:50;;;;;;;2.43;0.90;;;6.80;99.90;;;7.28;100.00;96366.00;5012228;28;20467;-77
2021/03/13 09:30:20;;;;;;;1.40;1.00;;;6.80;99.90;;;7.28;100.00;96380.81;5011126;28;20528;-78
2021/03/13 09:32:50;;;;;;;2.30;1.10;;;6.80;99.90;;;7.24;100.00;96380.41;5011520;28;20900;-77
2021/03/13 09:35:22;;;;;;;2.53;0.97;;;6.70;99.90;;;7.21;100.00;96399.03;5011094;28;20534;-78
2021/03/13 09:37:50;;;;;;;4.10;1.00;;;6.70;99.90;;;7.22;100.00;96402.44;5011194;28;20455;-77
2021/03/13 09:40:21;;;;;;;1.27;0.90;;;6.70;99.90;;;7.26;100.00;96421.78;5010529;28;20518;-78
2021/03/13 09:42:50;;;;;;;2.47;0.90;;;6.80;99.90;;;7.14;100.00;96460.63;5010927;28;20982;-77
2021/03/13 09:45:20;;;;;;;1.37;1.00;;;6.60;99.90;;;7.10;100.00;96493.22;5010955;28;20529;-77
2021/03/13 09:47:54;;;;;;;1.93;1.30;;;6.50;99.90;;;7.14;100.00;96504.00;5010828;28;20457;-77
2021/03/13 09:50:29;;;;;;;1.80;1.10;;;6.60;99.90;;;7.01;100.00;96500.44;5010942;28;20447;-77
2021/03/13 09:53:00;;;;;;;5.13;0.87;;;6.40;99.90;;;6.91;100.00;96513.03;5010815;28;20450;-77
2021/03/13 09:55:31;;;;;;;4.10;0.90;;;6.30;99.90;;;6.92;100.00;96534.63;5011079;28;20447;-78
2021/03/13 09:58:01;;;;;;;1.60;0.83;;;6.40;99.90;;;6.78;100.00;96514.84;5010204;28;20498;-78
2021/03/13 10:00:32;;;;;;;1.30;0.90;;;6.20;99.90;;;6.61;100.00;96531.84;5010660;28;20481;-77
2021/03/13 10:03:02;;;;;;;1.20;0.90;;;6.00;99.90;;;6.50;100.00;96523.63;5010364;28;20451;-77
2021/03/13 10:05:31;;;;;;;0.80;0.60;;;5.90;99.90;;;6.30;100.00;96527.22;5010612;28;20451;-77
2021/03/13 10:08:07;;;;;;;1.90;0.73;;;5.60;99.90;;;6.41;100.00;96537.03;5010382;28;20467;-78
2021/03/13 10:10:36;;;;;;;1.00;0.80;;;5.80;99.90;;;6.40;100.00;96544.00;5010076;28;20439;-78
2021/03/13 10:13:08;;;;;;;1.10;0.70;;;5.80;99.90;;;6.37;100.00;96553.97;5010543;28;20461;-77
2021/03/13 10:15:38;;;;;;;2.03;0.70;;;5.80;99.90;;;6.31;100.00;96565.16;5010116;28;20459;-77
2021/03/13 10:18:10;;;;;;;0.70;0.70;;;5.70;99.90;;;5.95;100.00;96581.81;5010743;28;20533;-77
2021/03/13 10:20:53;;;;;;;0.80;0.70;;;5.20;99.90;;;5.99;100.00;96582.22;5010347;28;20820;-77
2021/03/13 10:23:23;;;;;;;1.43;0.70;;;5.40;99.90;;;6.00;100.00;96589.03;5010134;28;20439;-77
2021/03/13 10:25:58;;;;;;;0.70;0.60;;;5.40;99.90;;;5.96;100.00;96599.00;5010708;28;20459;-77
2021/03/13 10:28:31;;;;;;;0.70;0.60;;;5.40;99.90;;;5.92;100.00;96599.56;5010343;28;20455;-77
2021/03/13 10:31:08;;;;;;;0.70;0.70;;;5.30;99.90;;;5.81;100.00;96605.25;5010256;28;20470;-77
2021/03/13 10:33:40;;;;;;;0.70;0.70;;;5.20;99.90;;;5.88;100.00;96603.53;5010090;28;21463;-78
2021/03/13 10:36:10;;;;;;;0.80;0.60;;;5.30;99.90;;;5.78;100.00;96610.84;5010299;28;20447;-77
2021/03/13 10:38:42;;;;;;;0.77;0.70;;;5.20;99.90;;;5.73;100.00;96611.41;5009896;28;20502;-77
2021/03/13 10:41:14;;;;;;;0.80;0.70;;;5.10;99.90;;;5.83;100.00;96608.50;5010582;28;20552;-78
2021/03/13 10:43:46;;;;;;;1.87;1.33;;;5.20;99.90;;;5.80;100.00;96606.25;5010036;28;20456;-78
2021/03/13 10:46:19;;;;;;;1.00;0.80;;;5.10;99.90;;;5.77;100.00;96617.00;5009845;28;20566;-77